Time;durP1;ratioP1;P1;durP2;ratioP2;P2;SDS_P1;SDS_P2;PMS_P1;PMS_P2;Temp;Humidity;BMP_temperature;BMP_pressure;BME280_temperature;BME280_humidity;BME280_pressure;Samples;Min_cycle;Max_cycle;Signal;HPM_P1;HPM_P2
2023/09/26 00:00:56;;;;;;;6.65;3.95;;;13.40;99.90;;;;;;5074098;28;20094;-78
2023/09/26 00:03:22;;;;;;;5.18;4.20;;;13.30;99.90;;;;;;5074304;28;20135;-77
2023/09/26 00:05:52;;;;;;;5.72;4.10;;;13.20;99.90;;;;;;5073089;28;20127;-77
2023/09/26 00:08:18;;;;;;;4.95;4.22;;;13.20;99.90;;;;;;5073604;28;20040;-77
2023/09/26 00:10:46;;;;;;;7.13;4.20;;;13.20;99.90;;;;;;5074154;28;20393;-77
2023/09/26 00:13:13;;;;;;;4.85;3.92;;;13.10;99.90;;;;;;5074210;28;20052;-77
2023/09/26 00:15:38;;;;;;;5.63;4.40;;;13.10;99.90;;;;;;5072883;28;20059;-77
2023/09/26 00:18:05;;;;;;;6.43;3.80;;;13.00;99.90;;;;;;5074089;28;20040;-77
2023/09/26 00:20:34;;;;;;;5.50;4.50;;;13.00;99.90;;;;;;5074066;28;20076;-77
2023/09/26 00:23:00;;;;;;;6.47;4.35;;;13.00;99.90;;;;;;5072179;28;20055;-77
2023/09/26 00:25:26;;;;;;;5.25;4.32;;;12.90;99.90;;;;;;5072621;28;20055;-77
2023/09/26 00:27:52;;;;;;;5.78;4.25;;;12.90;99.90;;;;;;5074272;28;20048;-77
2023/09/26 00:30:20;;;;;;;6.63;4.78;;;12.80;99.90;;;;;;5072726;28;20044;-77
2023/09/26 00:32:46;;;;;;;5.60;4.50;;;12.80;99.90;;;;;;5073469;28;20090;-76
2023/09/26 00:35:12;;;;;;;6.88;4.38;;;12.80;99.90;;;;;;5072576;28;20056;-77
2023/09/26 00:37:43;;;;;;;5.95;4.43;;;12.80;99.90;;;;;;5072870;28;20043;-78
2023/09/26 00:40:10;;;;;;;5.78;4.65;;;12.70;99.90;;;;;;5074095;28;20037;-78
2023/09/26 00:42:36;;;;;;;5.88;4.53;;;12.70;99.90;;;;;;5072666;28;20127;-78
2023/09/26 00:45:02;;;;;;;4.90;4.32;;;12.70;99.90;;;;;;5072302;28;20128;-78
2023/09/26 00:47:34;;;;;;;4.40;3.40;;;12.70;99.90;;;;;;5072775;28;20049;-78
2023/09/26 00:50:03;;;;;;;6.30;4.28;;;12.60;99.90;;;;;;5072550;28;20036;-78
2023/09/26 00:52:29;;;;;;;4.53;3.38;;;12.60;99.90;;;;;;5073428;28;20438;-78
2023/09/26 00:54:56;;;;;;;6.57;4.22;;;12.60;99.90;;;;;;5073590;28;20047;-78
2023/09/26 00:57:21;;;;;;;5.03;3.72;;;12.50;99.90;;;;;;5074268;28;20136;-79
2023/09/26 00:59:47;;;;;;;7.35;5.15;;;12.50;99.90;;;;;;5073987;28;20136;-78
2023/09/26 01:02:13;;;;;;;4.95;4.00;;;12.50;99.90;;;;;;5073860;28;20534;-78
2023/09/26 01:04:40;;;;;;;5.18;3.90;;;12.40;99.90;;;;;;5073408;28;20044;-78
2023/09/26 01:07:05;;;;;;;4.55;3.17;;;12.30;99.90;;;;;;5073743;28;20067;-78
2023/09/26 01:09:31;;;;;;;3.58;2.70;;;12.30;99.90;;;;;;5073374;28;20485;-78
2023/09/26 01:11:57;;;;;;;3.42;2.90;;;12.20;99.90;;;;;;5074024;28;20052;-78
2023/09/26 01:14:23;;;;;;;5.10;4.13;;;12.10;99.90;;;;;;5072402;28;20056;-78
2023/09/26 01:16:55;;;;;;;5.85;4.15;;;12.00;99.90;;;;;;5055708;28;20045;-77
2023/09/26 01:19:21;;;;;;;5.05;3.85;;;12.10;99.90;;;;;;5073380;28;20052;-77
2023/09/26 01:21:48;;;;;;;6.75;4.80;;;12.00;99.90;;;;;;5072217;28;20045;-77
2023/09/26 01:24:17;;;;;;;7.82;4.82;;;12.00;99.90;;;;;;5072061;28;20051;-77
2023/09/26 01:26:43;;;;;;;6.43;4.90;;;12.00;99.90;;;;;;5072364;28;20053;-77
2023/09/26 01:29:10;;;;;;;7.72;4.65;;;12.10;99.90;;;;;;5073338;28;20044;-77
2023/09/26 01:31:37;;;;;;;7.25;5.07;;;12.10;99.90;;;;;;5073150;28;20040;-77
2023/09/26 01:34:03;;;;;;;7.63;4.80;;;12.10;99.90;;;;;;5073093;28;20065;-77
2023/09/26 01:36:30;;;;;;;5.88;4.45;;;12.10;99.90;;;;;;5077132;28;20082;-77
2023/09/26 01:38:55;;;;;;;6.80;4.57;;;12.20;99.90;;;;;;5077107;28;20044;-78
2023/09/26 01:41:24;;;;;;;7.43;5.00;;;12.20;99.90;;;;;;5077078;28;20045;-77
2023/09/26 01:43:50;;;;;;;5.72;4.63;;;12.20;99.90;;;;;;5076737;28;20083;-76
2023/09/26 01:46:19;;;;;;;6.07;4.38;;;12.10;99.90;;;;;;5075749;28;20098;-77
2023/09/26 01:48:45;;;;;;;6.97;4.63;;;12.10;99.90;;;;;;5076890;28;20545;-77
2023/09/26 01:51:11;;;;;;;7.13;4.90;;;12.10;99.90;;;;;;5075568;28;20044;-78
2023/09/26 01:53:37;;;;;;;6.53;5.15;;;12.10;99.90;;;;;;5077251;28;20060;-77
2023/09/26 01:56:03;;;;;;;6.15;4.63;;;12.00;99.90;;;;;;5075592;28;20431;-78
2023/09/26 01:58:28;;;;;;;7.55;5.28;;;11.90;99.90;;;;;;5076760;28;20131;-77
2023/09/26 02:00:54;;;;;;;6.97;4.85;;;11.90;99.90;;;;;;5075948;28;20055;-78
2023/09/26 02:03:19;;;;;;;6.25;4.40;;;11.90;99.90;;;;;;5075698;28;20055;-77
2023/09/26 02:05:45;;;;;;;7.25;4.95;;;11.90;99.90;;;;;;5076548;28;20101;-77
2023/09/26 02:08:12;;;;;;;7.53;4.90;;;11.90;99.90;;;;;;5076532;28;20500;-78
2023/09/26 02:10:37;;;;;;;7.22;4.82;;;11.80;99.90;;;;;;5076484;28;20044;-77
2023/09/26 02:13:03;;;;;;;7.72;5.35;;;11.80;99.90;;;;;;5075772;28;20036;-77
2023/09/26 02:15:29;;;;;;;5.55;4.65;;;11.80;99.90;;;;;;5076056;28;20048;-77
2023/09/26 02:17:55;;;;;;;7.82;4.78;;;11.80;99.90;;;;;;5075090;28;20045;-78
2023/09/26 02:20:20;;;;;;;6.30;4.97;;;11.80;99.90;;;;;;5076759;28;20503;-77
2023/09/26 02:22:48;;;;;;;7.03;5.20;;;11.80;99.90;;;;;;5076818;28;20056;-77
2023/09/26 02:25:15;;;;;;;5.72;4.63;;;11.80;99.90;;;;;;5075227;28;20056;-77
2023/09/26 02:27:42;;;;;;;7.32;5.10;;;11.80;99.90;;;;;;5076131;28;20044;-77
2023/09/26 02:30:10;;;;;;;8.30;6.72;;;11.90;99.90;;;;;;5074981;28;20565;-77
2023/09/26 02:32:36;;;;;;;7.18;4.60;;;11.90;99.90;;;;;;5076106;28;20370;-77
2023/09/26 02:35:03;;;;;;;4.55;3.88;;;11.90;99.90;;;;;;5074898;28;20070;-77
2023/09/26 02:37:29;;;;;;;6.10;4.15;;;11.80;99.90;;;;;;5075093;28;20040;-77
2023/09/26 02:39:55;;;;;;;4.70;3.60;;;11.60;99.90;;;;;;5076000;28;20090;-77
2023/09/26 02:42:20;;;;;;;5.32;4.30;;;11.50;99.90;;;;;;5075934;28;20040;-77
2023/09/26 02:44:46;;;;;;;5.50;4.30;;;11.50;99.90;;;;;;5075811;28;20097;-77
2023/09/26 02:47:12;;;;;;;5.03;4.28;;;11.50;99.90;;;;;;5057095;28;20055;-77
2023/09/26 02:49:37;;;;;;;6.72;4.10;;;11.40;99.90;;;;;;5075698;28;20074;-77
2023/09/26 02:52:03;;;;;;;4.40;3.60;;;11.30;99.90;;;;;;5075841;28;20093;-77
2023/09/26 02:54:29;;;;;;;5.32;4.13;;;11.40;99.90;;;;;;5075302;28;20474;-77
2023/09/26 02:56:57;;;;;;;5.05;3.78;;;11.30;99.90;;;;;;5075633;28;20049;-76
2023/09/26 02:59:22;;;;;;;6.88;4.05;;;11.30;99.90;;;;;;5074420;28;20059;-76
2023/09/26 03:01:48;;;;;;;5.15;3.45;;;11.30;99.90;;;;;;5075398;28;20048;-77
2023/09/26 03:04:14;;;;;;;5.72;4.20;;;11.30;99.90;;;;;;5074534;28;20454;-76
2023/09/26 03:06:39;;;;;;;6.65;4.88;;;11.30;99.90;;;;;;5075520;28;20075;-76
2023/09/26 03:09:07;;;;;;;7.03;5.13;;;11.30;99.90;;;;;;5057821;28;20550;-76
2023/09/26 03:11:32;;;;;;;7.40;5.10;;;11.40;99.90;;;;;;5075272;28;20044;-77
2023/09/26 03:13:58;;;;;;;6.40;4.90;;;11.40;99.90;;;;;;5109026;28;20043;-76
2023/09/26 03:16:24;;;;;;;6.20;5.43;;;11.50;99.90;;;;;;5074241;28;20419;-77
2023/09/26 03:18:54;;;;;;;8.57;5.65;;;11.50;99.90;;;;;;5075112;28;20084;-77
2023/09/26 03:21:20;;;;;;;6.45;5.00;;;11.50;99.90;;;;;;5075156;28;20044;-77
2023/09/26 03:23:46;;;;;;;6.75;5.15;;;11.60;99.90;;;;;;5075456;28;20045;-77
2023/09/26 03:26:13;;;;;;;6.85;5.30;;;11.50;99.90;;;;;;5075102;28;20563;-77
2023/09/26 03:28:39;;;;;;;7.05;5.53;;;11.50;99.90;;;;;;5075052;28;20073;-77
2023/09/26 03:31:05;;;;;;;7.93;5.35;;;11.50;99.90;;;;;;5074868;28;20135;-77
2023/09/26 03:33:32;;;;;;;8.80;5.18;;;11.50;99.90;;;;;;5074872;28;20067;-77
2023/09/26 03:35:59;;;;;;;6.63;5.13;;;11.50;99.90;;;;;;5073556;28;20063;-77
2023/09/26 03:38:25;;;;;;;6.95;4.80;;;11.50;99.90;;;;;;5074779;28;20052;-76
2023/09/26 03:40:57;;;;;;;8.15;4.93;;;11.50;99.90;;;;;;5074713;28;20043;-77
2023/09/26 03:43:24;;;;;;;6.43;5.05;;;11.50;99.90;;;;;;5073680;28;20052;-77
2023/09/26 03:45:50;;;;;;;6.28;4.80;;;11.50;99.90;;;;;;5074564;28;20044;-77
2023/09/26 03:48:15;;;;;;;5.85;4.95;;;11.50;99.90;;;;;;5073891;28;20155;-77
2023/09/26 03:50:42;;;;;;;6.70;5.05;;;11.40;99.90;;;;;;5073151;28;20051;-77
2023/09/26 03:53:08;;;;;;;9.10;5.22;;;11.40;99.90;;;;;;5074536;28;20052;-77
2023/09/26 03:55:33;;;;;;;6.55;5.00;;;11.40;99.90;;;;;;5073549;28;20497;-76
2023/09/26 03:57:59;;;;;;;9.18;5.80;;;11.30;99.90;;;;;;5073030;28;20047;-76
2023/09/26 04:00:27;;;;;;;7.55;5.13;;;11.30;99.90;;;;;;5074047;28;20047;-77
2023/09/26 04:02:56;;;;;;;6.90;5.28;;;11.30;99.90;;;;;;5073932;28;20052;-77
2023/09/26 04:05:22;;;;;;;7.18;5.60;;;11.30;99.90;;;;;;5074394;28;20501;-77
2023/09/26 04:07:47;;;;;;;8.10;5.07;;;11.30;99.90;;;;;;5074132;28;20040;-77
2023/09/26 04:10:13;;;;;;;8.55;5.80;;;11.30;99.90;;;;;;5073079;28;20048;-77
2023/09/26 04:12:39;;;;;;;7.50;5.22;;;11.30;99.90;;;;;;5074003;28;20044;-77
2023/09/26 04:15:05;;;;;;;6.97;4.95;;;11.30;99.90;;;;;;5056256;28;20052;-77
2023/09/26 04:17:31;;;;;;;6.75;5.45;;;11.30;99.90;;;;;;5072939;28;20063;-77
2023/09/26 04:19:57;;;;;;;5.28;4.68;;;11.20;99.90;;;;;;5072782;28;20044;-77
2023/09/26 04:22:23;;;;;;;5.70;4.50;;;11.20;99.90;;;;;;5073386;28;20085;-76
2023/09/26 04:24:49;;;;;;;6.50;5.18;;;11.20;99.90;;;;;;5073945;28;20049;-76
2023/09/26 04:27:15;;;;;;;5.88;4.80;;;11.10;99.90;;;;;;5073833;28;20045;-77
2023/09/26 04:29:41;;;;;;;5.88;4.68;;;11.10;99.90;;;;;;5073798;28;20169;-78
2023/09/26 04:32:07;;;;;;;7.65;5.32;;;11.10;99.90;;;;;;5072846;28;20041;-77
2023/09/26 04:34:33;;;;;;;7.53;5.38;;;11.10;99.90;;;;;;5056677;28;20060;-77
2023/09/26 04:36:58;;;;;;;6.10;4.88;;;11.10;99.90;;;;;;5073816;28;20040;-77
2023/09/26 04:39:25;;;;;;;7.63;5.45;;;11.10;99.90;;;;;;5073752;28;20048;-77
2023/09/26 04:41:50;;;;;;;7.28;5.00;;;11.10;99.90;;;;;;5074220;28;20049;-76
2023/09/26 04:44:16;;;;;;;6.07;5.00;;;11.10;99.90;;;;;;5073707;28;20075;-77
2023/09/26 04:46:41;;;;;;;8.23;5.68;;;11.10;99.90;;;;;;5073608;28;20052;-77
2023/09/26 04:49:07;;;;;;;6.43;4.82;;;11.20;99.90;;;;;;5073369;28;20044;-77
2023/09/26 04:51:33;;;;;;;6.20;5.28;;;11.20;99.90;;;;;;5073371;28;20055;-77
2023/09/26 04:54:01;;;;;;;8.02;5.68;;;11.20;99.90;;;;;;5072328;28;20047;-78
2023/09/26 04:56:27;;;;;;;8.10;5.45;;;11.20;99.90;;;;;;5073423;28;20082;-78
2023/09/26 04:58:52;;;;;;;7.95;5.57;;;11.20;99.90;;;;;;5073232;28;20040;-78
2023/09/26 05:01:18;;;;;;;6.75;5.25;;;11.20;99.90;;;;;;5073320;28;20048;-78
2023/09/26 05:03:44;;;;;;;7.53;5.35;;;11.20;99.90;;;;;;5072331;28;20552;-78
2023/09/26 05:06:11;;;;;;;9.20;5.72;;;11.20;99.90;;;;;;5073533;28;20040;-78
2023/09/26 05:08:37;;;;;;;8.48;5.70;;;11.20;99.90;;;;;;5072860;28;20039;-78
2023/09/26 05:11:03;;;;;;;6.88;5.57;;;11.20;99.90;;;;;;5076269;28;20044;-78
2023/09/26 05:13:29;;;;;;;7.35;5.13;;;11.20;99.90;;;;;;5076543;28;20055;-77
2023/09/26 05:15:55;;;;;;;6.78;5.07;;;11.20;99.90;;;;;;5076180;28;20060;-78
2023/09/26 05:18:22;;;;;;;6.93;5.20;;;11.20;99.90;;;;;;5077359;28;20059;-77
2023/09/26 05:20:48;;;;;;;6.80;5.00;;;11.20;99.90;;;;;;5076330;28;20070;-77
2023/09/26 05:23:14;;;;;;;7.82;5.32;;;11.30;99.90;;;;;;5077071;28;20465;-78
2023/09/26 05:25:39;;;;;;;6.57;5.03;;;11.30;99.90;;;;;;5076060;28;20052;-78
2023/09/26 05:28:05;;;;;;;7.30;5.32;;;11.30;99.90;;;;;;5077223;28;20040;-78
2023/09/26 05:30:31;;;;;;;8.45;5.40;;;11.40;99.90;;;;;;5077925;28;20090;-78
2023/09/26 05:32:56;;;;;;;7.47;5.65;;;11.40;99.90;;;;;;5077252;28;20384;-77
2023/09/26 05:35:23;;;;;;;8.23;5.38;;;11.40;99.90;;;;;;5076209;28;20060;-78
2023/09/26 05:37:48;;;;;;;7.82;5.32;;;11.40;99.90;;;;;;5076393;28;20088;-78
2023/09/26 05:40:14;;;;;;;6.97;5.43;;;11.50;99.90;;;;;;5077318;28;20083;-78
2023/09/26 05:42:40;;;;;;;6.78;4.80;;;11.50;99.90;;;;;;5075909;28;20048;-78
2023/09/26 05:45:08;;;;;;;7.93;5.68;;;11.50;99.90;;;;;;5076907;28;20087;-78
2023/09/26 05:47:34;;;;;;;6.80;5.28;;;11.50;99.90;;;;;;5076865;28;20040;-78
2023/09/26 05:50:00;;;;;;;6.47;5.22;;;11.60;99.90;;;;;;5076740;28;20124;-78
2023/09/26 05:52:27;;;;;;;7.63;5.18;;;11.60;99.90;;;;;;5075895;28;20383;-78
2023/09/26 05:54:53;;;;;;;7.63;5.30;;;11.70;99.90;;;;;;5076783;28;20044;-78
2023/09/26 05:57:19;;;;;;;6.63;5.20;;;11.70;99.90;;;;;;5077507;28;20052;-78
2023/09/26 05:59:44;;;;;;;6.95;5.32;;;11.70;99.90;;;;;;5076680;28;20040;-78
2023/09/26 06:02:14;;;;;;;7.30;5.35;;;11.70;99.90;;;;;;5075687;28;20507;-78
2023/09/26 06:04:44;;;;;;;6.75;5.20;;;11.70;99.90;;;;;;5076639;28;20099;-78
2023/09/26 06:07:10;;;;;;;6.38;5.28;;;11.70;99.90;;;;;;5076161;28;20562;-78
2023/09/26 06:09:36;;;;;;;7.15;5.03;;;11.70;99.90;;;;;;5076374;28;20048;-78
2023/09/26 06:12:06;;;;;;;8.45;5.80;;;11.70;99.90;;;;;;5075344;28;20108;-78
2023/09/26 06:14:34;;;;;;;7.35;5.82;;;11.80;99.90;;;;;;5076349;28;20048;-78
2023/09/26 06:17:00;;;;;;;8.52;5.45;;;11.80;99.90;;;;;;5075008;28;20086;-68
2023/09/26 06:19:26;;;;;;;11.68;5.30;;;11.90;99.90;;;;;;5076240;28;20040;-68
2023/09/26 06:21:51;;;;;;;7.75;5.63;;;11.90;99.90;;;;;;5076728;28;20070;-67
2023/09/26 06:24:17;;;;;;;6.70;5.18;;;11.90;99.90;;;;;;5076237;28;20445;-68
2023/09/26 06:26:43;;;;;;;7.43;5.95;;;12.00;99.90;;;;;;5076303;28;20481;-68
2023/09/26 06:29:09;;;;;;;6.80;5.30;;;12.00;99.90;;;;;;5076723;28;20358;-68
2023/09/26 06:31:34;;;;;;;7.60;5.90;;;12.10;99.90;;;;;;5075064;28;20400;-67
2023/09/26 06:34:01;;;;;;;7.57;5.57;;;12.10;99.90;;;;;;5075673;28;20049;-67
2023/09/26 06:36:30;;;;;;;8.63;5.95;;;12.10;99.90;;;;;;5075849;28;20127;-67
2023/09/26 06:38:57;;;;;;;8.93;6.30;;;12.20;99.90;;;;;;5076211;28;20045;-68
2023/09/26 06:41:23;;;;;;;8.23;5.78;;;12.20;99.90;;;;;;5075882;28;20047;-67
2023/09/26 06:43:49;;;;;;;8.93;6.43;;;12.30;99.90;;;;;;5075855;28;20045;-68
2023/09/26 06:46:15;;;;;;;8.07;5.78;;;12.40;99.90;;;;;;5075910;28;20377;-68
2023/09/26 06:48:43;;;;;;;8.55;6.38;;;12.40;99.90;;;;;;5075722;28;20048;-68
2023/09/26 06:51:09;;;;;;;8.43;6.10;;;12.50;99.90;;;;;;5075720;28;20135;-67
2023/09/26 06:53:36;;;;;;;8.50;6.22;;;12.50;99.90;;;;;;5075804;28;20468;-68
2023/09/26 06:56:07;;;;;;;10.88;6.53;;;12.50;99.90;;;;;;5075750;28;20048;-68
2023/09/26 06:58:34;;;;;;;7.57;6.07;;;12.60;99.90;;;;;;5076421;28;20045;-67
2023/09/26 07:01:00;;;;;;;7.40;5.80;;;12.60;99.90;;;;;;5075639;28;20090;-67
2023/09/26 07:03:29;;;;;;;8.32;5.95;;;12.60;99.90;;;;;;5074533;28;20079;-67
2023/09/26 07:05:56;;;;;;;9.13;6.47;;;12.60;99.90;;;;;;5076307;28;20045;-67
2023/09/26 07:08:21;;;;;;;7.78;6.18;;;12.60;99.90;;;;;;5075501;28;20378;-68
2023/09/26 07:10:47;;;;;;;7.75;5.68;;;12.70;99.90;;;;;;5075879;28;20044;-67
2023/09/26 07:13:13;;;;;;;8.55;5.95;;;12.70;99.90;;;;;;5075365;28;20079;-67
2023/09/26 07:15:42;;;;;;;8.60;6.00;;;12.80;99.90;;;;;;5075193;28;20052;-67
2023/09/26 07:18:10;;;;;;;7.80;5.95;;;12.80;99.90;;;;;;5074457;28;20107;-67
2023/09/26 07:20:49;;;;;;;7.78;5.85;;;12.90;99.90;;;;;;5074674;28;20082;-65
2023/09/26 07:23:14;;;;;;;11.13;6.78;;;12.90;99.90;;;;;;5074935;28;20048;-65
2023/09/26 07:25:40;;;;;;;8.75;6.55;;;13.00;99.90;;;;;;5074852;28;20044;-66
2023/09/26 07:28:06;;;;;;;8.95;6.40;;;13.10;99.90;;;;;;5075739;28;20347;-65
2023/09/26 07:30:32;;;;;;;8.93;6.55;;;13.10;99.90;;;;;;5074315;28;20052;-65
2023/09/26 07:32:57;;;;;;;8.82;6.65;;;13.20;99.90;;;;;;5074653;28;20135;-66
2023/09/26 07:35:25;;;;;;;8.75;6.13;;;13.30;99.90;;;;;;5074843;28;20061;-66
2023/09/26 07:37:51;;;;;;;8.48;5.90;;;13.30;99.90;;;;;;5075197;28;20102;-67
2023/09/26 07:40:17;;;;;;;7.70;6.07;;;13.40;99.90;;;;;;5075139;28;20405;-67
2023/09/26 07:42:42;;;;;;;8.13;6.28;;;13.40;99.90;;;;;;5074625;28;20131;-67
2023/09/26 07:45:08;;;;;;;9.30;6.57;;;13.40;99.90;;;;;;5073494;28;20080;-67
2023/09/26 07:47:34;;;;;;;8.80;6.43;;;13.50;99.90;;;;;;5074503;28;20040;-67
2023/09/26 07:50:01;;;;;;;8.80;6.78;;;13.50;99.90;;;;;;5074399;28;20045;-67
2023/09/26 07:52:27;;;;;;;8.70;6.53;;;13.60;99.90;;;;;;5073680;28;20094;-66
2023/09/26 07:54:53;;;;;;;8.27;6.15;;;13.70;99.90;;;;;;5074338;28;20125;-67
2023/09/26 07:57:20;;;;;;;7.95;6.60;;;13.70;99.90;;;;;;5074649;28;20037;-67
2023/09/26 07:59:47;;;;;;;9.45;7.03;;;13.80;99.90;;;;;;5074785;28;20083;-66
2023/09/26 08:02:12;;;;;;;9.50;6.95;;;13.80;99.90;;;;;;5074146;28;20053;-66
2023/09/26 08:04:38;;;;;;;9.85;6.80;;;13.90;99.90;;;;;;5074914;28;20355;-66
2023/09/26 08:07:04;;;;;;;8.90;6.47;;;14.00;99.90;;;;;;5072730;28;20090;-66
2023/09/26 08:09:31;;;;;;;8.38;6.25;;;14.00;99.90;;;;;;5074193;28;20094;-66
2023/09/26 08:11:57;;;;;;;8.20;6.40;;;14.00;99.90;;;;;;5074022;28;20045;-66
2023/09/26 08:14:23;;;;;;;10.23;7.07;;;14.10;99.90;;;;;;5073126;28;20088;-66
2023/09/26 08:16:49;;;;;;;10.75;6.68;;;14.20;99.90;;;;;;5074169;28;20509;-67
2023/09/26 08:19:15;;;;;;;9.10;6.32;;;14.30;99.90;;;;;;5074153;28;20477;-66
2023/09/26 08:21:40;;;;;;;8.52;6.75;;;14.30;99.90;;;;;;5074204;28;20461;-66
2023/09/26 08:24:06;;;;;;;9.73;6.97;;;14.40;99.90;;;;;;5073813;28;20051;-66
2023/09/26 08:26:32;;;;;;;8.30;6.55;;;14.50;99.90;;;;;;5074306;28;20048;-66
2023/09/26 08:28:58;;;;;;;8.25;6.85;;;14.70;99.90;;;;;;5072689;28;20366;-65
2023/09/26 08:31:23;;;;;;;8.70;6.40;;;14.80;99.90;;;;;;5073002;28;20066;-66
2023/09/26 08:33:49;;;;;;;9.13;6.00;;;15.00;99.90;;;;;;5072423;28;20056;-65
2023/09/26 08:36:20;;;;;;;7.68;6.40;;;15.00;99.90;;;;;;5072554;28;20386;-66
2023/09/26 08:38:50;;;;;;;7.75;6.03;;;15.10;99.90;;;;;;5073613;28;20051;-66
2023/09/26 08:41:19;;;;;;;8.68;6.80;;;15.20;99.90;;;;;;5074077;28;20098;-66
2023/09/26 08:43:46;;;;;;;9.73;6.57;;;15.30;99.90;;;;;;5072123;28;20052;-66
2023/09/26 08:46:12;;;;;;;9.23;7.15;;;15.50;99.90;;;;;;5073191;28;20044;-66
2023/09/26 08:48:42;;;;;;;6.70;6.00;;;15.60;99.90;;;;;;5073215;28;20123;-66
2023/09/26 08:51:08;;;;;;;7.28;5.65;;;15.80;99.90;;;;;;5073785;28;20101;-67
2023/09/26 08:53:33;;;;;;;6.82;5.57;;;15.90;99.90;;;;;;5072688;28;20532;-66
2023/09/26 08:55:59;;;;;;;9.77;6.60;;;15.90;99.90;;;;;;5073470;28;20044;-66
2023/09/26 08:58:26;;;;;;;7.45;6.10;;;16.00;99.90;;;;;;5073042;28;20059;-66
2023/09/26 09:00:52;;;;;;;8.68;6.00;;;16.00;99.90;;;;;;5072251;28;20154;-65
2023/09/26 09:03:18;;;;;;;6.85;5.85;;;16.10;99.90;;;;;;5073388;28;20131;-66
2023/09/26 09:05:44;;;;;;;6.22;5.63;;;16.10;99.90;;;;;;5073511;28;20080;-65
2023/09/26 09:08:20;;;;;;;8.15;5.97;;;16.10;99.90;;;;;;5073186;28;20052;-66
2023/09/26 09:10:56;;;;;;;7.85;5.57;;;16.20;99.90;;;;;;5072854;28;20040;-65
2023/09/26 09:13:30;;;;;;;7.07;5.55;;;16.20;99.90;;;;;;5073271;28;20436;-66
2023/09/26 09:16:16;;;;;;;7.30;6.20;;;16.20;99.90;;;;;;5072460;28;20386;-66
2023/09/26 09:18:47;;;;;;;7.00;6.00;;;16.30;99.90;;;;;;5073146;28;20047;-65
2023/09/26 09:21:21;;;;;;;6.85;5.35;;;16.40;99.90;;;;;;5072926;28;20290;-65
2023/09/26 09:23:47;;;;;;;7.38;5.60;;;16.50;99.90;;;;;;5072971;28;20044;-66
2023/09/26 09:26:12;;;;;;;7.38;5.80;;;16.50;99.90;;;;;;5072873;28;20074;-66
2023/09/26 09:28:38;;;;;;;6.72;5.88;;;16.60;99.90;;;;;;5072981;28;20036;-66
2023/09/26 09:31:04;;;;;;;7.95;5.47;;;16.80;99.90;;;;;;5073191;28;20076;-66
2023/09/26 09:33:31;;;;;;;6.72;4.88;;;16.90;99.90;;;;;;5073258;28;20056;-66
2023/09/26 09:35:58;;;;;;;7.15;5.90;;;17.00;99.90;;;;;;5072935;28;20433;-66
2023/09/26 09:38:24;;;;;;;7.03;5.85;;;17.10;99.90;;;;;;5073051;28;20464;-66
2023/09/26 09:40:51;;;;;;;6.32;5.10;;;17.10;99.90;;;;;;5071861;28;20041;-66
2023/09/26 09:43:17;;;;;;;6.65;5.03;;;17.00;99.90;;;;;;5072731;28;20056;-66
2023/09/26 09:45:43;;;;;;;6.45;5.10;;;17.00;99.90;;;;;;5073707;28;20048;-66
2023/09/26 09:48:09;;;;;;;8.57;5.05;;;17.10;99.90;;;;;;5072929;28;20535;-66
2023/09/26 09:50:39;;;;;;;7.05;5.47;;;17.10;99.90;;;;;;5073164;28;20385;-66
2023/09/26 09:53:05;;;;;;;6.32;4.65;;;17.30;99.90;;;;;;5073003;28;20051;-66
2023/09/26 09:55:39;;;;;;;7.03;5.00;;;17.60;99.90;;;;;;5072287;28;20041;-65
2023/09/26 09:58:12;;;;;;;5.53;4.68;;;17.80;99.90;;;;;;5077131;28;20052;-65
2023/09/26 10:00:40;;;;;;;6.50;4.30;;;17.80;99.90;;;;;;5076651;28;20461;-65
2023/09/26 10:03:06;;;;;;;5.85;4.57;;;17.90;99.90;;;;;;5076944;28;20443;-66
2023/09/26 10:05:34;;;;;;;6.60;4.95;;;18.00;99.90;;;;;;5076331;28;20048;-66
2023/09/26 10:08:01;;;;;;;6.68;4.47;;;18.20;99.90;;;;;;5076371;28;20045;-66
2023/09/26 10:10:28;;;;;;;5.40;4.60;;;18.30;99.90;;;;;;5075559;28;20040;-66
2023/09/26 10:12:54;;;;;;;7.10;4.53;;;18.40;99.90;;;;;;5076355;28;20087;-66
2023/09/26 10:15:20;;;;;;;6.30;4.63;;;18.60;99.90;;;;;;5076035;28;20076;-66
2023/09/26 10:17:48;;;;;;;6.03;4.45;;;18.90;99.90;;;;;;5076279;28;20044;-67
2023/09/26 10:20:15;;;;;;;6.22;4.70;;;19.40;99.90;;;;;;5076651;28;20044;-65
2023/09/26 10:22:43;;;;;;;5.15;3.95;;;19.90;99.90;;;;;;5076490;28;20097;-65
2023/09/26 10:25:22;;;;;;;5.25;4.57;;;20.20;99.90;;;;;;5076064;28;20560;-67
2023/09/26 10:27:47;;;;;;;5.00;3.90;;;20.40;99.90;;;;;;5076270;28;20056;-66
2023/09/26 10:30:14;;;;;;;5.20;4.28;;;20.50;99.90;;;;;;5076500;28;20369;-66
2023/09/26 10:32:42;;;;;;;8.13;4.25;;;20.50;99.90;;;;;;5076089;28;20044;-65
2023/09/26 10:35:13;;;;;;;6.28;4.25;;;20.30;99.90;;;;;;5075740;28;20067;-66
2023/09/26 10:37:48;;;;;;;6.03;4.55;;;20.10;99.90;;;;;;5076192;28;20121;-66
2023/09/26 10:40:17;;;;;;;5.25;4.38;;;20.10;99.90;;;;;;5076414;28;20047;-66
2023/09/26 10:42:45;;;;;;;5.40;4.32;;;20.20;99.90;;;;;;5076364;28;20390;-66
2023/09/26 10:45:11;;;;;;;5.35;3.95;;;20.20;99.90;;;;;;5075810;28;20040;-67
2023/09/26 10:47:39;;;;;;;5.00;3.83;;;20.20;99.90;;;;;;5076534;28;20078;-64
2023/09/26 10:50:13;;;;;;;7.38;4.03;;;20.20;99.90;;;;;;5075221;28;20366;-64
2023/09/26 10:52:46;;;;;;;5.55;4.32;;;20.20;99.90;;;;;;5076451;28;20044;-65
2023/09/26 10:55:17;;;;;;;5.50;4.25;;;20.00;99.90;;;;;;5076082;28;20392;-65
2023/09/26 10:57:45;;;;;;;7.65;4.20;;;19.90;99.90;;;;;;5076409;28;20422;-65
2023/09/26 11:00:14;;;;;;;6.20;4.28;;;19.80;99.90;;;;;;5075447;28;20041;-65
2023/09/26 11:02:42;;;;;;;6.60;4.22;;;19.80;99.90;;;;;;5075691;28;20040;-65
2023/09/26 11:05:10;;;;;;;6.45;4.13;;;19.80;99.90;;;;;;5075349;28;20121;-65
2023/09/26 11:07:37;;;;;;;4.95;3.85;;;19.80;99.90;;;;;;5074342;28;20052;-65
2023/09/26 11:10:04;;;;;;;5.47;4.00;;;19.90;99.90;;;;;;5075259;28;20056;-66
2023/09/26 11:12:31;;;;;;;4.20;3.60;;;19.90;99.90;;;;;;5075537;28;20060;-66
2023/09/26 11:15:00;;;;;;;6.60;3.97;;;20.00;99.90;;;;;;5075864;28;20044;-66
2023/09/26 11:17:29;;;;;;;6.35;3.92;;;20.10;99.90;;;;;;5074189;28;20052;-65
2023/09/26 11:19:59;;;;;;;4.05;3.45;;;20.10;99.90;;;;;;5075629;28;20059;-66
2023/09/26 11:22:25;;;;;;;4.63;3.72;;;20.20;99.90;;;;;;5075071;28;20044;-65
2023/09/26 11:25:04;;;;;;;5.43;3.25;;;20.30;99.90;;;;;;5075126;28;20123;-65
2023/09/26 11:27:30;;;;;;;4.80;3.60;;;20.30;99.90;;;;;;5075768;28;20079;-66
2023/09/26 11:30:00;;;;;;;5.68;3.03;;;20.30;99.90;;;;;;5074815;28;20186;-66
2023/09/26 11:32:25;;;;;;;4.32;3.45;;;20.30;99.90;;;;;;5074936;28;20056;-65
2023/09/26 11:34:51;;;;;;;5.72;3.58;;;20.20;99.90;;;;;;5075282;28;20167;-66
2023/09/26 11:37:17;;;;;;;5.07;3.35;;;20.30;99.90;;;;;;5073550;28;20067;-66
2023/09/26 11:39:54;;;;;;;4.50;3.50;;;20.40;99.90;;;;;;5075593;28;20119;-66
2023/09/26 11:42:20;;;;;;;4.68;3.28;;;20.50;99.90;;;;;;5074618;28;20056;-67
2023/09/26 11:44:53;;;;;;;4.55;3.30;;;20.60;99.90;;;;;;5074505;28;20094;-65
2023/09/26 11:47:24;;;;;;;5.22;3.33;;;20.70;99.90;;;;;;5074497;28;20045;-65
2023/09/26 11:49:51;;;;;;;3.75;3.03;;;20.80;99.90;;;;;;5074538;28;20127;-65
2023/09/26 11:52:18;;;;;;;5.53;3.08;;;20.80;99.90;;;;;;5075295;28;20102;-65
2023/09/26 11:54:45;;;;;;;4.97;3.00;;;20.80;99.90;;;;;;5074514;28;20436;-65
2023/09/26 11:57:12;;;;;;;4.90;3.15;;;20.70;99.90;;;;;;5074492;28;20127;-65
2023/09/26 11:59:38;;;;;;;4.13;2.65;;;20.60;99.90;;;;;;5074564;28;20547;-65
2023/09/26 12:02:04;;;;;;;5.13;2.85;;;20.50;99.90;;;;;;5074253;28;20049;-65
2023/09/26 12:04:32;;;;;;;4.32;2.67;;;20.40;99.90;;;;;;5074814;28;20052;-65
2023/09/26 12:06:58;;;;;;;3.92;2.72;;;20.40;99.90;;;;;;5073223;28;20056;-65
2023/09/26 12:09:24;;;;;;;4.57;2.40;;;20.40;99.90;;;;;;5074162;28;20036;-65
2023/09/26 12:11:55;;;;;;;5.43;2.85;;;20.40;99.90;;;;;;5073651;28;20114;-65
2023/09/26 12:14:21;;;;;;;4.75;2.58;;;20.40;99.90;;;;;;5074651;28;20053;-65
2023/09/26 12:16:51;;;;;;;4.88;2.50;;;20.40;99.90;;;;;;5073971;28;20049;-66
2023/09/26 12:19:21;;;;;;;4.00;2.45;;;20.40;99.90;;;;;;5073914;28;20370;-65
2023/09/26 12:21:47;;;;;;;3.45;2.50;;;20.50;99.90;;;;;;5073932;28;20040;-66
2023/09/26 12:24:14;;;;;;;4.97;2.53;;;20.50;99.90;;;;;;5072776;28;20486;-65
2023/09/26 12:26:41;;;;;;;3.53;2.40;;;20.50;99.90;;;;;;5074630;28;20369;-65
2023/09/26 12:29:07;;;;;;;5.22;2.00;;;20.50;99.90;;;;;;5074336;28;20044;-65
2023/09/26 12:31:33;;;;;;;4.45;2.20;;;20.60;99.90;;;;;;5073768;28;20071;-65
2023/09/26 12:34:02;;;;;;;3.00;1.95;;;20.70;99.90;;;;;;5073673;28;20041;-65
2023/09/26 12:36:28;;;;;;;3.00;2.10;;;20.70;99.90;;;;;;5074316;28;20056;-65
2023/09/26 12:38:54;;;;;;;3.30;2.13;;;20.70;99.90;;;;;;5074570;28;20178;-66
2023/09/26 12:41:20;;;;;;;5.50;2.60;;;20.70;99.90;;;;;;5073721;28;20537;-65
2023/09/26 12:43:45;;;;;;;4.82;2.50;;;20.70;99.90;;;;;;5074483;28;20047;-65